sensor_id;sensor_type;location;lat;lon;timestamp;pressure;altitude;pressure_sealevel;temperature;humidity
9189;BME280;34313;50.780;6.084;2023-02-04T00:00:16;101133.78;;;7.33;100.00
9189;BME280;34313;50.780;6.084;2023-02-04T00:02:41;101133.88;;;7.27;100.00
9189;BME280;34313;50.780;6.084;2023-02-04T00:05:08;101135.66;;;7.27;100.00
9189;BME280;34313;50.780;6.084;2023-02-04T00:07:34;101127.78;;;7.27;100.00
9189;BME280;34313;50.780;6.084;2023-02-04T00:09:59;101130.25;;;7.34;100.00
9189;BME280;34313;50.780;6.084;2023-02-04T00:12:24;101133.59;;;7.43;100.00
9189;BME280;34313;50.780;6.084;2023-02-04T00:14:50;101126.00;;;7.29;100.00
9189;BME280;34313;50.780;6.084;2023-02-04T00:17:15;101119.28;;;7.14;100.00
9189;BME280;34313;50.780;6.084;2023-02-04T00:19:40;101140.91;;;7.27;100.00
9189;BME280;34313;50.780;6.084;2023-02-04T00:22:07;101145.34;;;7.22;100.00
9189;BME280;34313;50.780;6.084;2023-02-04T00:24:36;101146.97;;;7.29;100.00
9189;BME280;34313;50.780;6.084;2023-02-04T00:27:02;101147.13;;;7.21;100.00
9189;BME280;34313;50.780;6.084;2023-02-04T00:29:27;101140.91;;;7.27;100.00
9189;BME280;34313;50.780;6.084;2023-02-04T00:31:53;101154.00;;;7.27;100.00
9189;BME280;34313;50.780;6.084;2023-02-04T00:34:18;101154.03;;;7.25;100.00
9189;BME280;34313;50.780;6.084;2023-02-04T00:36:44;101161.22;;;7.15;100.00
9189;BME280;34313;50.780;6.084;2023-02-04T00:39:09;101151.81;;;7.04;100.00
9189;BME280;34313;50.780;6.084;2023-02-04T00:41:34;101159.69;;;7.02;100.00
9189;BME280;34313;50.780;6.084;2023-02-04T00:43:59;101154.63;;;6.91;100.00
9189;BME280;34313;50.780;6.084;2023-02-04T00:46:25;101157.06;;;7.02;100.00
9189;BME280;34313;50.780;6.084;2023-02-04T00:48:50;101151.88;;;6.99;100.00
9189;BME280;34313;50.780;6.084;2023-02-04T00:51:15;101150.06;;;7.03;100.00
9189;BME280;34313;50.780;6.084;2023-02-04T00:53:41;101153.41;;;7.12;100.00
9189;BME280;34313;50.780;6.084;2023-02-04T00:56:06;101146.50;;;7.08;100.00
9189;BME280;34313;50.780;6.084;2023-02-04T00:58:32;101148.97;;;7.14;100.00
9189;BME280;34313;50.780;6.084;2023-02-04T01:00:57;101151.00;;;7.00;100.00
9189;BME280;34313;50.780;6.084;2023-02-04T01:03:22;101153.66;;;6.97;100.00
9189;BME280;34313;50.780;6.084;2023-02-04T01:05:48;101158.91;;;6.95;100.00
9189;BME280;34313;50.780;6.084;2023-02-04T01:08:13;101158.00;;;6.98;100.00
9189;BME280;34313;50.780;6.084;2023-02-04T01:10:38;101154.47;;;7.00;100.00
9189;BME280;34313;50.780;6.084;2023-02-04T01:13:04;101124.06;;;6.89;100.00
9189;BME280;34313;50.780;6.084;2023-02-04T01:15:29;101149.19;;;7.04;100.00
9189;BME280;34313;50.780;6.084;2023-02-04T01:17:55;101146.50;;;7.07;100.00
9189;BME280;34313;50.780;6.084;2023-02-04T01:20:20;101150.00;;;7.07;100.00
9189;BME280;34313;50.780;6.084;2023-02-04T01:22:45;101150.78;;;7.12;100.00
9189;BME280;34313;50.780;6.084;2023-02-04T01:25:11;101148.25;;;7.06;100.00
9189;BME280;34313;50.780;6.084;2023-02-04T01:27:36;101154.38;;;7.07;100.00
9189;BME280;34313;50.780;6.084;2023-02-04T01:30:03;101164.75;;;7.11;100.00
9189;BME280;34313;50.780;6.084;2023-02-04T01:32:29;101170.13;;;7.05;100.00
9189;BME280;34313;50.780;6.084;2023-02-04T01:34:54;101170.91;;;7.12;100.00
9189;BME280;34313;50.780;6.084;2023-02-04T01:37:19;101168.44;;;7.01;100.00
9189;BME280;34313;50.780;6.084;2023-02-04T01:39:45;101169.31;;;7.02;100.00
9189;BME280;34313;50.780;6.084;2023-02-04T01:42:10;101182.31;;;7.08;100.00
9189;BME280;34313;50.780;6.084;2023-02-04T01:44:36;101189.31;;;7.07;100.00
9189;BME280;34313;50.780;6.084;2023-02-04T01:47:01;101180.56;;;7.08;100.00
9189;BME280;34313;50.780;6.084;2023-02-04T01:49:27;101184.16;;;7.01;100.00
9189;BME280;34313;50.780;6.084;2023-02-04T01:51:53;101179.03;;;6.95;100.00
9189;BME280;34313;50.780;6.084;2023-02-04T01:54:18;101187.72;;;6.97;100.00
9189;BME280;34313;50.780;6.084;2023-02-04T01:56:46;101196.53;;;6.93;100.00
9189;BME280;34313;50.780;6.084;2023-02-04T01:59:14;101191.34;;;6.90;100.00
9189;BME280;34313;50.780;6.084;2023-02-04T02:01:42;101201.72;;;6.96;100.00
9189;BME280;34313;50.780;6.084;2023-02-04T02:04:10;101187.78;;;6.92;100.00
9189;BME280;34313;50.780;6.084;2023-02-04T02:06:39;101192.13;;;6.96;100.00
9189;BME280;34313;50.780;6.084;2023-02-04T02:09:06;101193.03;;;6.92;100.00
9189;BME280;34313;50.780;6.084;2023-02-04T02:11:32;101187.06;;;6.84;100.00
9189;BME280;34313;50.780;6.084;2023-02-04T02:13:57;101196.59;;;6.90;100.00
9189;BME280;34313;50.780;6.084;2023-02-04T02:16:23;101187.75;;;6.95;100.00
9189;BME280;34313;50.780;6.084;2023-02-04T02:18:49;101185.94;;;6.99;100.00
9189;BME280;34313;50.780;6.084;2023-02-04T02:21:20;101188.53;;;7.02;100.00
9189;BME280;34313;50.780;6.084;2023-02-04T02:23:48;101187.72;;;6.97;100.00
9189;BME280;34313;50.780;6.084;2023-02-04T02:26:16;101182.53;;;6.94;100.00
9189;BME280;34313;50.780;6.084;2023-02-04T02:28:43;101192.06;;;6.99;100.00
9189;BME280;34313;50.780;6.084;2023-02-04T02:31:09;101184.22;;;6.98;100.00
9189;BME280;34313;50.780;6.084;2023-02-04T02:33:34;101192.00;;;7.03;100.00
9189;BME280;34313;50.780;6.084;2023-02-04T02:36:00;101190.47;;;6.91;100.00
9189;BME280;34313;50.780;6.084;2023-02-04T02:38:26;101195.75;;;6.88;100.00
9189;BME280;34313;50.780;6.084;2023-02-04T02:40:51;101205.41;;;6.86;100.00
9189;BME280;34313;50.780;6.084;2023-02-04T02:43:20;101207.00;;;6.94;100.00
9189;BME280;34313;50.780;6.084;2023-02-04T02:45:47;101202.63;;;6.95;100.00
9189;BME280;34313;50.780;6.084;2023-02-04T02:48:13;101200.00;;;6.95;100.00
9189;BME280;34313;50.780;6.084;2023-02-04T02:50:38;101198.44;;;6.83;100.00
9189;BME280;34313;50.780;6.084;2023-02-04T02:53:11;101208.09;;;6.81;100.00
9189;BME280;34313;50.780;6.084;2023-02-04T02:55:37;101203.81;;;6.75;100.00
9189;BME280;34313;50.780;6.084;2023-02-04T02:58:03;101202.09;;;6.71;100.00
9189;BME280;34313;50.780;6.084;2023-02-04T03:00:29;101197.72;;;6.73;100.00
9189;BME280;34313;50.780;6.084;2023-02-04T03:03:19;101183.75;;;6.73;100.00
9189;BME280;34313;50.780;6.084;2023-02-04T03:05:48;101191.66;;;6.70;100.00
9189;BME280;34313;50.780;6.084;2023-02-04T03:08:16;101207.44;;;6.67;100.00
9189;BME280;34313;50.780;6.084;2023-02-04T03:10:43;101204.84;;;6.63;100.00
9189;BME280;34313;50.780;6.084;2023-02-04T03:13:10;101220.56;;;6.63;100.00
9189;BME280;34313;50.780;6.084;2023-02-04T03:15:37;101224.97;;;6.60;100.00
9189;BME280;34313;50.780;6.084;2023-02-04T03:18:02;101223.25;;;6.59;100.00
9189;BME280;34313;50.780;6.084;2023-02-04T03:20:30;101227.63;;;6.57;100.00
9189;BME280;34313;50.780;6.084;2023-02-04T03:22:56;101226.81;;;6.55;100.00
9189;BME280;34313;50.780;6.084;2023-02-04T03:25:23;101227.63;;;6.57;100.00
9189;BME280;34313;50.780;6.084;2023-02-04T03:27:51;101237.28;;;6.53;100.00
9189;BME280;34313;50.780;6.084;2023-02-04T03:30:18;101232.06;;;6.52;100.00
9189;BME280;34313;50.780;6.084;2023-02-04T03:32:44;101240.78;;;6.54;100.00
9189;BME280;34313;50.780;6.084;2023-02-04T03:35:09;101237.38;;;6.49;100.00
9189;BME280;34313;50.780;6.084;2023-02-04T03:37:35;101233.88;;;6.47;100.00
9189;BME280;34313;50.780;6.084;2023-02-04T03:40:00;101245.19;;;6.50;100.00
9189;BME280;34313;50.780;6.084;2023-02-04T03:42:25;101248.69;;;6.51;100.00
9189;BME280;34313;50.780;6.084;2023-02-04T03:44:51;101256.50;;;6.54;100.00
9189;BME280;34313;50.780;6.084;2023-02-04T03:47:16;101260.88;;;6.53;100.00
9189;BME280;34313;50.780;6.084;2023-02-04T03:49:41;101261.72;;;6.54;100.00
9189;BME280;34313;50.780;6.084;2023-02-04T03:52:07;101258.25;;;6.55;100.00
9189;BME280;34313;50.780;6.084;2023-02-04T03:54:32;101259.13;;;6.54;100.00
9189;BME280;34313;50.780;6.084;2023-02-04T03:56:57;101263.44;;;6.59;100.00
9189;BME280;34313;50.780;6.084;2023-02-04T03:59:23;101269.50;;;6.63;100.00
9189;BME280;34313;50.780;6.084;2023-02-04T04:01:48;101268.59;;;6.64;100.00
9189;BME280;34313;50.780;6.084;2023-02-04T04:04:13;101267.69;;;6.67;100.00
9189;BME280;34313;50.780;6.084;2023-02-04T04:06:39;101267.69;;;6.68;100.00
9189;BME280;34313;50.780;6.084;2023-02-04T04:09:04;101265.06;;;6.68;100.00
9189;BME280;34313;50.780;6.084;2023-02-04T04:11:30;101267.66;;;6.70;100.00
9189;BME280;34313;50.780;6.084;2023-02-04T04:13:55;101262.44;;;6.67;100.00
9189;BME280;34313;50.780;6.084;2023-02-04T04:16:21;101251.06;;;6.68;100.00
9189;BME280;34313;50.780;6.084;2023-02-04T04:18:46;101261.47;;;6.75;100.00
9189;BME280;34313;50.780;6.084;2023-02-04T04:21:12;101260.66;;;6.70;100.00
9189;BME280;34313;50.780;6.084;2023-02-04T04:23:37;101268.53;;;6.69;100.00
9189;BME280;34313;50.780;6.084;2023-02-04T04:26:02;101259.88;;;6.62;100.00
9189;BME280;34313;50.780;6.084;2023-02-04T04:28:28;101265.94;;;6.66;100.00
9189;BME280;34313;50.780;6.084;2023-02-04T04:30:53;101259.81;;;6.68;100.00
9189;BME280;34313;50.780;6.084;2023-02-04T04:33:18;101263.28;;;6.70;100.00
9189;BME280;34313;50.780;6.084;2023-02-04T04:35:44;101266.78;;;6.69;100.00
9189;BME280;34313;50.780;6.084;2023-02-04T04:38:09;101265.91;;;6.70;100.00
9189;BME280;34313;50.780;6.084;2023-02-04T04:40:34;101276.34;;;6.73;100.00
9189;BME280;34313;50.780;6.084;2023-02-04T04:43:00;101272.84;;;6.73;100.00
9189;BME280;34313;50.780;6.084;2023-02-04T04:45:25;101282.47;;;6.71;100.00
9189;BME280;34313;50.780;6.084;2023-02-04T04:47:50;101277.28;;;6.66;100.00
9189;BME280;34313;50.780;6.084;2023-02-04T04:50:16;101272.97;;;6.62;100.00
9189;BME280;34313;50.780;6.084;2023-02-04T04:52:41;101281.69;;;6.64;100.00
9189;BME280;34313;50.780;6.084;2023-02-04T04:55:07;101269.53;;;6.60;100.00
9189;BME280;34313;50.780;6.084;2023-02-04T04:57:33;101280.00;;;6.61;100.00
9189;BME280;34313;50.780;6.084;2023-02-04T04:59:58;101279.88;;;6.68;100.00
9189;BME280;34313;50.780;6.084;2023-02-04T05:02:23;101272.03;;;6.68;100.00
9189;BME280;34313;50.780;6.084;2023-02-04T05:04:49;101278.09;;;6.71;100.00
9189;BME280;34313;50.780;6.084;2023-02-04T05:07:14;101277.16;;;6.77;100.00
9189;BME280;34313;50.780;6.084;2023-02-04T05:09:39;101271.78;;;6.86;100.00
9189;BME280;34313;50.780;6.084;2023-02-04T05:12:05;101271.75;;;6.88;100.00
9189;BME280;34313;50.780;6.084;2023-02-04T05:14:30;101275.25;;;6.87;100.00
9189;BME280;34313;50.780;6.084;2023-02-04T05:16:56;101284.03;;;6.84;100.00
9189;BME280;34313;50.780;6.084;2023-02-04T05:19:21;101288.41;;;6.84;100.00
9189;BME280;34313;50.780;6.084;2023-02-04T05:21:46;101283.28;;;6.74;100.00
9189;BME280;34313;50.780;6.084;2023-02-04T05:24:12;101282.44;;;6.74;100.00
9189;BME280;34313;50.780;6.084;2023-02-04T05:26:37;101285.13;;;6.68;100.00
9189;BME280;34313;50.780;6.084;2023-02-04T05:29:02;101286.06;;;6.65;100.00
9189;BME280;34313;50.780;6.084;2023-02-04T05:31:28;101287.84;;;6.63;100.00
9189;BME280;34313;50.780;6.084;2023-02-04T05:33:53;101286.09;;;6.62;100.00
9189;BME280;34313;50.780;6.084;2023-02-04T05:36:19;101293.91;;;6.65;100.00
9189;BME280;34313;50.780;6.084;2023-02-04T05:38:44;101291.34;;;6.60;100.00
9189;BME280;34313;50.780;6.084;2023-02-04T05:41:10;101289.63;;;6.59;100.00
9189;BME280;34313;50.780;6.084;2023-02-04T05:43:35;101296.66;;;6.56;100.00
9189;BME280;34313;50.780;6.084;2023-02-04T05:46:00;101292.31;;;6.52;100.00
9189;BME280;34313;50.780;6.084;2023-02-04T05:48:26;101305.41;;;6.52;100.00
9189;BME280;34313;50.780;6.084;2023-02-04T05:50:51;101311.59;;;6.48;100.00
9189;BME280;34313;50.780;6.084;2023-02-04T05:53:17;101308.13;;;6.46;100.00
9189;BME280;34313;50.780;6.084;2023-02-04T05:55:42;101302.06;;;6.42;100.00
9189;BME280;34313;50.780;6.084;2023-02-04T05:58:08;101312.44;;;6.48;100.00
9189;BME280;34313;50.780;6.084;2023-02-04T06:00:33;101318.59;;;6.47;100.00
9189;BME280;34313;50.780;6.084;2023-02-04T06:02:59;101314.19;;;6.51;100.00
9189;BME280;34313;50.780;6.084;2023-02-04T06:05:24;101320.16;;;6.59;100.00
9189;BME280;34313;50.780;6.084;2023-02-04T06:07:49;101315.75;;;6.64;100.00
9189;BME280;34313;50.780;6.084;2023-02-04T06:10:15;101313.94;;;6.68;100.00
9189;BME280;34313;50.780;6.084;2023-02-04T06:12:40;101324.50;;;6.65;100.00
9189;BME280;34313;50.780;6.084;2023-02-04T06:15:06;101322.75;;;6.62;100.00
9189;BME280;34313;50.780;6.084;2023-02-04T06:17:32;101326.28;;;6.61;100.00
9189;BME280;34313;50.780;6.084;2023-02-04T06:19:57;101322.78;;;6.60;100.00
9189;BME280;34313;50.780;6.084;2023-02-04T06:22:22;101328.00;;;6.63;100.00
9189;BME280;34313;50.780;6.084;2023-02-04T06:24:50;101321.75;;;6.72;100.00
9189;BME280;34313;50.780;6.084;2023-02-04T06:27:15;101330.44;;;6.76;100.00
9189;BME280;34313;50.780;6.084;2023-02-04T06:29:50;101331.31;;;6.76;100.00
9189;BME280;34313;50.780;6.084;2023-02-04T06:32:17;101338.25;;;6.80;100.00
9189;BME280;34313;50.780;6.084;2023-02-04T06:34:42;101347.84;;;6.80;100.00
9189;BME280;34313;50.780;6.084;2023-02-04T06:37:08;101344.41;;;6.78;100.00
9189;BME280;34313;50.780;6.084;2023-02-04T06:39:33;101351.41;;;6.77;100.00
9189;BME280;34313;50.780;6.084;2023-02-04T06:41:58;101346.19;;;6.74;100.00
9189;BME280;34313;50.780;6.084;2023-02-04T06:44:24;101341.03;;;6.68;100.00
9189;BME280;34313;50.780;6.084;2023-02-04T06:46:49;101355.03;;;6.66;100.00
9189;BME280;34313;50.780;6.084;2023-02-04T06:49:14;101352.41;;;6.67;100.00
9189;BME280;34313;50.780;6.084;2023-02-04T06:51:40;101358.47;;;6.69;100.00
9189;BME280;34313;50.780;6.084;2023-02-04T06:54:05;101361.94;;;6.73;100.00
9189;BME280;34313;50.780;6.084;2023-02-04T06:56:30;101364.50;;;6.76;100.00
9189;BME280;34313;50.780;6.084;2023-02-04T06:58:56;101366.34;;;6.68;100.00
9189;BME280;34313;50.780;6.084;2023-02-04T07:01:21;101368.97;;;6.68;100.00
9189;BME280;34313;50.780;6.084;2023-02-04T07:03:46;101369.91;;;6.65;100.00
9189;BME280;34313;50.780;6.084;2023-02-04T07:06:12;101385.59;;;6.67;100.00
9189;BME280;34313;50.780;6.084;2023-02-04T07:08:37;101395.19;;;6.68;100.00
9189;BME280;34313;50.780;6.084;2023-02-04T07:11:02;101393.47;;;6.67;100.00
9189;BME280;34313;50.780;6.084;2023-02-04T07:13:28;101392.56;;;6.68;100.00
9189;BME280;34313;50.780;6.084;2023-02-04T07:15:53;101390.81;;;6.68;100.00
9189;BME280;34313;50.780;6.084;2023-02-04T07:18:18;101390.75;;;6.74;100.00
9189;BME280;34313;50.780;6.084;2023-02-04T07:20:44;101382.81;;;6.80;100.00
9189;BME280;34313;50.780;6.084;2023-02-04T07:23:09;101384.44;;;6.91;100.00
9189;BME280;34313;50.780;6.084;2023-02-04T07:25:35;101383.63;;;6.84;100.00
9189;BME280;34313;50.780;6.084;2023-02-04T07:28:00;101378.41;;;6.82;100.00
9189;BME280;34313;50.780;6.084;2023-02-04T07:30:28;101381.94;;;6.80;100.00
9189;BME280;34313;50.780;6.084;2023-02-04T07:32:53;101381.88;;;6.85;100.00
9189;BME280;34313;50.780;6.084;2023-02-04T07:35:18;101396.69;;;6.87;100.00
9189;BME280;34313;50.780;6.084;2023-02-04T07:37:44;101386.28;;;6.82;100.00
9189;BME280;34313;50.780;6.084;2023-02-04T07:40:11;101396.69;;;6.87;100.00
9189;BME280;34313;50.780;6.084;2023-02-04T07:42:36;101401.03;;;6.91;100.00
9189;BME280;34313;50.780;6.084;2023-02-04T07:45:02;101400.09;;;6.94;100.00
9189;BME280;34313;50.780;6.084;2023-02-04T07:47:27;101410.53;;;6.98;100.00
9189;BME280;34313;50.780;6.084;2023-02-04T07:49:53;101410.50;;;7.03;100.00
9189;BME280;34313;50.780;6.084;2023-02-04T07:52:21;101406.88;;;7.12;100.00
9189;BME280;34313;50.780;6.084;2023-02-04T07:54:47;101415.59;;;7.14;100.00
9189;BME280;34313;50.780;6.084;2023-02-04T07:57:12;101417.31;;;7.15;100.00
9189;BME280;34313;50.780;6.084;2023-02-04T07:59:37;101418.09;;;7.22;100.00
9189;BME280;34313;50.780;6.084;2023-02-04T08:02:03;101423.97;;;7.39;100.00
9189;BME280;34313;50.780;6.084;2023-02-04T08:04:28;101418.56;;;7.50;100.00
9189;BME280;34313;50.780;6.084;2023-02-04T08:06:53;101426.34;;;7.57;100.00
9189;BME280;34313;50.780;6.084;2023-02-04T08:09:19;101419.06;;;7.75;100.00
9189;BME280;34313;50.780;6.084;2023-02-04T08:11:44;101420.50;;;7.94;100.00
9189;BME280;34313;50.780;6.084;2023-02-04T08:14:09;101434.34;;;8.03;100.00
9189;BME280;34313;50.780;6.084;2023-02-04T08:16:35;101436.72;;;8.18;100.00
9189;BME280;34313;50.780;6.084;2023-02-04T08:19:00;101439.84;;;8.40;100.00
9189;BME280;34313;50.780;6.084;2023-02-04T08:21:26;101443.94;;;8.58;100.00
9189;BME280;34313;50.780;6.084;2023-02-04T08:23:51;101446.72;;;8.50;100.00
9189;BME280;34313;50.780;6.084;2023-02-04T08:26:16;101438.66;;;8.60;100.00
9189;BME280;34313;50.780;6.084;2023-02-04T08:28:42;101435.63;;;8.78;100.00
9189;BME280;34313;50.780;6.084;2023-02-04T08:31:25;101442.47;;;8.87;100.00
9189;BME280;34313;50.780;6.084;2023-02-04T08:33:50;101442.84;;;8.70;100.00
9189;BME280;34313;50.780;6.084;2023-02-04T08:36:16;101443.69;;;8.70;100.00
9189;BME280;34313;50.780;6.084;2023-02-04T08:38:41;101448.38;;;8.55;100.00
9189;BME280;34313;50.780;6.084;2023-02-04T08:41:08;101453.53;;;8.61;100.00
9189;BME280;34313;50.780;6.084;2023-02-04T08:43:33;101453.25;;;8.75;100.00
9189;BME280;34313;50.780;6.084;2023-02-04T08:45:59;101459.34;;;8.77;100.00
9189;BME280;34313;50.780;6.084;2023-02-04T08:48:24;101461.06;;;8.78;100.00
9189;BME280;34313;50.780;6.084;2023-02-04T08:50:50;101459.41;;;8.74;100.00
9189;BME280;34313;50.780;6.084;2023-02-04T08:53:15;101465.31;;;8.85;100.00
9189;BME280;34313;50.780;6.084;2023-02-04T08:55:40;101462.47;;;8.96;100.00
9189;BME280;34313;50.780;6.084;2023-02-04T08:58:06;101464.13;;;9.01;100.00
9189;BME280;34313;50.780;6.084;2023-02-04T09:00:31;101469.13;;;9.14;100.00
9189;BME280;34313;50.780;6.084;2023-02-04T09:02:56;101464.66;;;9.19;100.00
9189;BME280;34313;50.780;6.084;2023-02-04T09:05:22;101477.84;;;9.16;100.00
9189;BME280;34313;50.780;6.084;2023-02-04T09:07:48;101477.88;;;9.14;100.00
9189;BME280;34313;50.780;6.084;2023-02-04T09:10:14;101470.97;;;9.10;100.00
9189;BME280;34313;50.780;6.084;2023-02-04T09:12:39;101478.63;;;9.21;100.00
9189;BME280;34313;50.780;6.084;2023-02-04T09:15:10;101477.03;;;9.14;100.00
9189;BME280;34313;50.780;6.084;2023-02-04T09:17:36;101479.66;;;9.14;100.00
9189;BME280;34313;50.780;6.084;2023-02-04T09:20:02;101484.16;;;9.08;100.00
9189;BME280;34313;50.780;6.084;2023-02-04T09:22:27;101478.84;;;9.10;100.00
9189;BME280;34313;50.780;6.084;2023-02-04T09:24:53;101482.50;;;9.03;100.00
9189;BME280;34313;50.780;6.084;2023-02-04T09:27:18;101489.41;;;9.08;100.00
9189;BME280;34313;50.780;6.084;2023-02-04T09:29:44;101491.97;;;9.12;100.00
9189;BME280;34313;50.780;6.084;2023-02-04T09:32:09;101494.38;;;9.22;100.00
9189;BME280;34313;50.780;6.084;2023-02-04T09:34:34;101488.34;;;9.17;99.98
9189;BME280;34313;50.780;6.084;2023-02-04T09:37:00;101492.03;;;9.51;99.57
9189;BME280;34313;50.780;6.084;2023-02-04T09:39:25;101490.56;;;9.76;98.47
9189;BME280;34313;50.780;6.084;2023-02-04T09:41:50;101484.97;;;9.90;97.86
9189;BME280;34313;50.780;6.084;2023-02-04T09:44:19;101480.94;;;10.11;96.67
9189;BME280;34313;50.780;6.084;2023-02-04T09:46:51;101485.28;;;10.14;96.42
9189;BME280;34313;50.780;6.084;2023-02-04T09:49:17;101489.72;;;10.13;95.30
9189;BME280;34313;50.780;6.084;2023-02-04T09:51:44;101492.28;;;10.15;95.02
9189;BME280;34313;50.780;6.084;2023-02-04T09:54:13;101500.09;;;10.19;94.29
9189;BME280;34313;50.780;6.084;2023-02-04T09:56:39;101497.09;;;10.35;94.08
9189;BME280;34313;50.780;6.084;2023-02-04T09:59:16;101511.59;;;10.51;91.80
9189;BME280;34313;50.780;6.084;2023-02-04T10:01:43;101500.16;;;10.52;91.86
9189;BME280;34313;50.780;6.084;2023-02-04T10:04:13;101510.84;;;10.46;91.58
9189;BME280;34313;50.780;6.084;2023-02-04T10:06:41;101502.91;;;10.48;91.30
9189;BME280;34313;50.780;6.084;2023-02-04T10:09:10;101503.66;;;10.53;90.83
9189;BME280;34313;50.780;6.084;2023-02-04T10:11:37;101496.16;;;10.70;89.82
9189;BME280;34313;50.780;6.084;2023-02-04T10:14:22;101500.63;;;11.01;87.33
9189;BME280;34313;50.780;6.084;2023-02-04T10:16:56;101500.84;;;11.23;85.32
9189;BME280;34313;50.780;6.084;2023-02-04T10:19:23;101496.47;;;11.24;84.46
9189;BME280;34313;50.780;6.084;2023-02-04T10:21:48;101501.53;;;11.30;83.25
9189;BME280;34313;50.780;6.084;2023-02-04T10:24:23;101493.25;;;11.42;83.18
9189;BME280;34313;50.780;6.084;2023-02-04T10:26:53;101502.44;;;11.29;81.61
9189;BME280;34313;50.780;6.084;2023-02-04T10:29:22;101504.44;;;11.52;82.48
9189;BME280;34313;50.780;6.084;2023-02-04T10:31:51;101492.00;;;11.56;81.90
9189;BME280;34313;50.780;6.084;2023-02-04T10:34:31;101510.88;;;11.71;79.94
9189;BME280;34313;50.780;6.084;2023-02-04T10:36:56;101502.94;;;11.71;79.25
9189;BME280;34313;50.780;6.084;2023-02-04T10:39:24;101507.88;;;11.82;79.75
9189;BME280;34313;50.780;6.084;2023-02-04T10:44:20;101507.22;;;12.04;78.88
9189;BME280;34313;50.780;6.084;2023-02-04T10:47:04;101510.13;;;12.23;78.05
9189;BME280;34313;50.780;6.084;2023-02-04T10:49:31;101506.06;;;12.39;77.70
9189;BME280;34313;50.780;6.084;2023-02-04T10:51:56;101500.00;;;12.36;75.60
9189;BME280;34313;50.780;6.084;2023-02-04T10:54:24;101503.13;;;12.48;74.46
9189;BME280;34313;50.780;6.084;2023-02-04T10:57:10;101492.97;;;12.36;74.19
9189;BME280;34313;50.780;6.084;2023-02-04T10:59:40;101490.56;;;12.28;75.23
9189;BME280;34313;50.780;6.084;2023-02-04T11:04:47;101495.44;;;12.41;74.58
9189;BME280;34313;50.780;6.084;2023-02-04T11:07:12;101500.56;;;12.45;74.16
9189;BME280;34313;50.780;6.084;2023-02-04T11:09:42;101484.81;;;12.42;72.69
9189;BME280;34313;50.780;6.084;2023-02-04T11:12:41;101494.06;;;12.56;72.14
9189;BME280;34313;50.780;6.084;2023-02-04T11:15:42;101490.28;;;12.63;72.47
9189;BME280;34313;50.780;6.084;2023-02-04T11:20:38;101500.44;;;12.75;71.07
9189;BME280;34313;50.780;6.084;2023-02-04T11:26:36;101492.59;;;12.47;72.18
9189;BME280;34313;50.780;6.084;2023-02-04T11:31:40;101505.38;;;12.84;72.09
9189;BME280;34313;50.780;6.084;2023-02-04T11:39:33;101516.94;;;12.57;73.02
9189;BME280;34313;50.780;6.084;2023-02-04T11:42:00;101506.31;;;12.58;72.44
9189;BME280;34313;50.780;6.084;2023-02-04T11:44:26;101510.31;;;12.70;72.16
9189;BME280;34313;50.780;6.084;2023-02-04T11:46:53;101505.63;;;12.78;72.06
9189;BME280;34313;50.780;6.084;2023-02-04T11:49:20;101499.91;;;12.39;72.29
9189;BME280;34313;50.780;6.084;2023-02-04T11:51:48;101502.22;;;12.23;73.70
9189;BME280;34313;50.780;6.084;2023-02-04T11:54:15;101495.91;;;12.27;73.80
9189;BME280;34313;50.780;6.084;2023-02-04T11:56:44;101500.56;;;12.20;73.23
9189;BME280;34313;50.780;6.084;2023-02-04T11:59:10;101499.25;;;12.32;73.54
9189;BME280;34313;50.780;6.084;2023-02-04T12:01:36;101491.94;;;12.14;73.95
9189;BME280;34313;50.780;6.084;2023-02-04T12:04:05;101498.22;;;12.09;74.67
9189;BME280;34313;50.780;6.084;2023-02-04T12:06:35;101483.94;;;12.17;74.26
9189;BME280;34313;50.780;6.084;2023-02-04T12:09:06;101490.78;;;12.22;73.32
9189;BME280;34313;50.780;6.084;2023-02-04T12:11:32;101493.47;;;12.21;73.33
9189;BME280;34313;50.780;6.084;2023-02-04T12:14:06;101493.16;;;12.03;73.68
9189;BME280;34313;50.780;6.084;2023-02-04T12:16:49;101489.50;;;12.07;73.88
9189;BME280;34313;50.780;6.084;2023-02-04T12:19:17;101496.16;;;11.93;74.34
9189;BME280;34313;50.780;6.084;2023-02-04T12:21:42;101489.50;;;12.07;74.22
9189;BME280;34313;50.780;6.084;2023-02-04T12:24:08;101494.81;;;12.06;74.52
9189;BME280;34313;50.780;6.084;2023-02-04T12:26:33;101500.78;;;12.13;74.10
9189;BME280;34313;50.780;6.084;2023-02-04T12:28:59;101500.47;;;11.95;74.80
9189;BME280;34313;50.780;6.084;2023-02-04T12:31:30;101495.22;;;11.94;74.92
9189;BME280;34313;50.780;6.084;2023-02-04T12:33:56;101494.97;;;11.45;76.16
9189;BME280;34313;50.780;6.084;2023-02-04T12:36:21;101499.97;;;11.54;77.12
9189;BME280;34313;50.780;6.084;2023-02-04T12:38:46;101498.22;;;11.53;77.69
9189;BME280;34313;50.780;6.084;2023-02-04T12:41:12;101498.56;;;11.70;76.53
9189;BME280;34313;50.780;6.084;2023-02-04T12:43:38;101508.50;;;11.62;76.42
9189;BME280;34313;50.780;6.084;2023-02-04T12:46:03;101518.94;;;11.67;76.78
9189;BME280;34313;50.780;6.084;2023-02-04T12:48:29;101515.66;;;11.59;76.86
9189;BME280;34313;50.780;6.084;2023-02-04T12:50:54;101518.28;;;11.29;76.43
9189;BME280;34313;50.780;6.084;2023-02-04T12:53:20;101518.88;;;11.09;77.66
9189;BME280;34313;50.780;6.084;2023-02-04T12:55:45;101518.97;;;11.04;79.05
9189;BME280;34313;50.780;6.084;2023-02-04T12:58:11;101527.59;;;11.11;78.91
9189;BME280;34313;50.780;6.084;2023-02-04T13:00:36;101532.72;;;11.17;79.36
9189;BME280;34313;50.780;6.084;2023-02-04T13:03:02;101531.34;;;11.33;78.53
9189;BME280;34313;50.780;6.084;2023-02-04T13:05:28;101529.28;;;11.45;77.65
9189;BME280;34313;50.780;6.084;2023-02-04T13:07:53;101519.75;;;11.69;75.51
9189;BME280;34313;50.780;6.084;2023-02-04T13:10:19;101521.19;;;11.79;75.12
9189;BME280;34313;50.780;6.084;2023-02-04T13:12:46;101523.38;;;11.95;73.98
9189;BME280;34313;50.780;6.084;2023-02-04T13:15:11;101514.22;;;12.06;72.06